Time;durP1;ratioP1;P1;durP2;ratioP2;P2;SDS_P1;SDS_P2;PMS_P1;PMS_P2;Temp;Humidity;BMP_temperature;BMP_pressure;BME280_temperature;BME280_humidity;BME280_pressure;Samples;Min_cycle;Max_cycle;Signal;HPM_P1;HPM_P2
2021/06/21 00:00:56;;;;;;;;;4.00;4.00;;;;;;;;6355445;22;9672;-84
2021/06/21 00:03:21;;;;;;;;;6.75;6.75;;;;;;;;6355112;22;8766;-84
2021/06/21 00:05:47;;;;;;;;;7.50;6.00;;;;;;;;6354802;22;8829;-84
2021/06/21 00:08:12;;;;;;;;;8.00;6.75;;;;;;;;6355139;22;8750;-83
2021/06/21 00:10:38;;;;;;;;;10.25;7.00;;;;;;;;6326462;22;8778;-83
2021/06/21 00:13:03;;;;;;;;;9.50;8.75;;;;;;;;6355321;22;8746;-83
2021/06/21 00:15:29;;;;;;;;;6.75;6.75;;;;;;;;6355109;22;8734;-83
2021/06/21 00:17:55;;;;;;;;;7.00;6.50;;;;;;;;6326593;22;8738;-83
2021/06/21 00:20:20;;;;;;;;;8.00;7.25;;;;;;;;6355272;22;8760;-83
2021/06/21 00:22:46;;;;;;;;;8.00;7.75;;;;;;;;6355037;22;8812;-83
2021/06/21 00:25:12;;;;;;;;;8.50;8.50;;;;;;;;6354958;22;8746;-83
2021/06/21 00:27:39;;;;;;;;;8.50;7.50;;;;;;;;6354952;22;8711;-83
2021/06/21 00:30:05;;;;;;;;;9.75;9.25;;;;;;;;6354621;22;8727;-84
2021/06/21 00:32:30;;;;;;;;;8.75;7.00;;;;;;;;6354572;22;8785;-84
2021/06/21 00:34:56;;;;;;;;;8.00;7.00;;;;;;;;6354187;22;8734;-83
2021/06/21 00:37:21;;;;;;;;;9.00;7.50;;;;;;;;6326937;22;8753;-83
2021/06/21 00:39:47;;;;;;;;;9.25;8.00;;;;;;;;6355183;22;8742;-83
2021/06/21 00:42:12;;;;;;;;;7.25;7.25;;;;;;;;6326431;22;8930;-83
2021/06/21 00:44:38;;;;;;;;;8.50;7.50;;;;;;;;6354065;22;8766;-82
2021/06/21 00:47:03;;;;;;;;;8.00;7.25;;;;;;;;6354599;22;8816;-83
2021/06/21 00:49:29;;;;;;;;;8.00;8.00;;;;;;;;6354733;22;8758;-83
2021/06/21 00:51:56;;;;;;;;;10.25;8.00;;;;;;;;6326187;22;8859;-83
2021/06/21 00:54:22;;;;;;;;;8.00;8.00;;;;;;;;6354979;22;8707;-83
2021/06/21 00:56:48;;;;;;;;;9.00;7.75;;;;;;;;6326523;22;9556;-83
2021/06/21 00:59:16;;;;;;;;;12.00;10.75;;;;;;;;6354704;22;8823;-84
2021/06/21 01:01:41;;;;;;;;;11.75;11.50;;;;;;;;6354313;22;8765;-83
2021/06/21 01:04:06;;;;;;;;;12.00;12.00;;;;;;;;6354625;22;8746;-83
2021/06/21 01:06:32;;;;;;;;;12.00;9.50;;;;;;;;6326496;22;8758;-84
2021/06/21 01:08:57;;;;;;;;;11.25;11.00;;;;;;;;6326302;22;8762;-83
2021/06/21 01:11:29;;;;;;;;;11.00;9.75;;;;;;;;6355212;22;8855;-83
2021/06/21 01:14:04;;;;;;;;;12.00;10.50;;;;;;;;6354975;22;8722;-83
2021/06/21 01:16:37;;;;;;;;;12.75;10.25;;;;;;;;6354893;22;9549;-83
2021/06/21 01:19:08;;;;;;;;;9.00;7.75;;;;;;;;6326412;22;8796;-83
2021/06/21 01:21:52;;;;;;;;;12.25;9.25;;;;;;;;6354117;22;8769;-83
2021/06/21 01:24:29;;;;;;;;;10.50;7.75;;;;;;;;6354541;22;8750;-83
2021/06/21 01:26:59;;;;;;;;;9.50;8.75;;;;;;;;6354960;22;8715;-83
2021/06/21 01:29:34;;;;;;;;;8.00;8.00;;;;;;;;6326292;22;8754;-83
2021/06/21 01:32:11;;;;;;;;;9.25;9.25;;;;;;;;6326269;22;8870;-83
2021/06/21 01:34:39;;;;;;;;;9.25;8.50;;;;;;;;6354433;22;8761;-82
2021/06/21 01:37:05;;;;;;;;;10.50;8.50;;;;;;;;6354599;22;8758;-83
2021/06/21 01:39:33;;;;;;;;;10.50;7.75;;;;;;;;6326439;22;8780;-83
2021/06/21 01:42:02;;;;;;;;;7.75;7.75;;;;;;;;6354262;22;8794;-83
2021/06/21 01:44:50;;;;;;;;;9.50;9.00;;;;;;;;6353218;22;9795;-87
2021/06/21 01:47:16;;;;;;;;;9.00;8.50;;;;;;;;6352441;22;8702;-83
2021/06/21 01:49:44;;;;;;;;;16.50;15.00;;;;;;;;6354084;22;8768;-80
2021/06/21 01:52:11;;;;;;;;;10.50;10.50;;;;;;;;6354345;22;8756;-82
2021/06/21 01:54:37;;;;;;;;;15.00;14.50;;;;;;;;6354659;22;8738;-82
2021/06/21 01:57:03;;;;;;;;;15.75;15.00;;;;;;;;6354373;22;8674;-81
2021/06/21 01:59:29;;;;;;;;;11.50;11.50;;;;;;;;6354498;22;9608;-82
2021/06/21 02:01:56;;;;;;;;;10.75;9.25;;;;;;;;6354310;22;8839;-82
2021/06/21 02:04:22;;;;;;;;;10.25;8.75;;;;;;;;6354113;22;8738;-82
2021/06/21 02:06:49;;;;;;;;;8.50;6.25;;;;;;;;6353929;22;8737;-82
2021/06/21 02:09:14;;;;;;;;;9.75;7.00;;;;;;;;6354153;22;8734;-82
2021/06/21 02:11:40;;;;;;;;;6.00;5.00;;;;;;;;6354529;22;8786;-83
2021/06/21 02:14:06;;;;;;;;;7.50;4.50;;;;;;;;6354394;22;8843;-82
2021/06/21 02:16:31;;;;;;;;;4.00;4.00;;;;;;;;6354014;22;8781;-82
2021/06/21 02:18:58;;;;;;;;;4.25;4.00;;;;;;;;6354775;22;8766;-83
2021/06/21 02:21:23;;;;;;;;;2.00;2.00;;;;;;;;6353596;22;8682;-82
2021/06/21 02:23:51;;;;;;;;;4.50;4.50;;;;;;;;6353990;22;9586;-83
2021/06/21 02:26:21;;;;;;;;;4.00;4.00;;;;;;;;6354023;22;8710;-82
2021/06/21 02:28:47;;;;;;;;;2.25;2.25;;;;;;;;6354459;22;8734;-82
2021/06/21 02:31:13;;;;;;;;;3.00;2.25;;;;;;;;6353891;22;8773;-82
2021/06/21 02:33:38;;;;;;;;;3.75;3.00;;;;;;;;6354008;22;8758;-83
2021/06/21 02:36:04;;;;;;;;;6.00;4.00;;;;;;;;6355484;22;8829;-83
2021/06/21 02:38:29;;;;;;;;;2.75;2.75;;;;;;;;6355379;22;8758;-82
2021/06/21 02:40:55;;;;;;;;;1.00;1.00;;;;;;;;6327064;22;8786;-82
2021/06/21 02:43:20;;;;;;;;;4.50;3.50;;;;;;;;6355371;22;8784;-82
2021/06/21 02:45:46;;;;;;;;;6.00;4.00;;;;;;;;6326833;22;8844;-82
2021/06/21 02:48:11;;;;;;;;;4.25;3.25;;;;;;;;6355178;22;8785;-82
2021/06/21 02:50:41;;;;;;;;;4.25;4.00;;;;;;;;6355206;22;8898;-82
2021/06/21 02:53:21;;;;;;;;;4.00;3.75;;;;;;;;6355635;22;8698;-82
2021/06/21 02:55:50;;;;;;;;;2.75;2.75;;;;;;;;6355621;22;8666;-82
2021/06/21 02:58:18;;;;;;;;;5.00;4.00;;;;;;;;6355180;22;8819;-82
2021/06/21 03:00:45;;;;;;;;;3.00;3.00;;;;;;;;6327086;22;9321;-83
2021/06/21 03:03:10;;;;;;;;;4.25;3.75;;;;;;;;6355394;22;8764;-83
2021/06/21 03:05:39;;;;;;;;;8.25;5.25;;;;;;;;6355075;22;8841;-84
2021/06/21 03:08:08;;;;;;;;;5.00;4.50;;;;;;;;6355945;22;8726;-83
2021/06/21 03:10:36;;;;;;;;;5.25;5.25;;;;;;;;6326579;22;8744;-83
2021/06/21 03:13:02;;;;;;;;;8.50;5.50;;;;;;;;6355113;22;8738;-83
2021/06/21 03:15:29;;;;;;;;;9.00;6.75;;;;;;;;6355426;22;8738;-83
2021/06/21 03:17:55;;;;;;;;;7.00;6.00;;;;;;;;6355300;22;8722;-83
2021/06/21 03:20:21;;;;;;;;;9.50;6.25;;;;;;;;6355167;22;8675;-83
2021/06/21 03:23:06;;;;;;;;;8.50;6.50;;;;;;;;6354970;22;9594;-83
2021/06/21 03:25:35;;;;;;;;;7.50;6.00;;;;;;;;6354628;22;8757;-83
2021/06/21 03:28:27;;;;;;;;;4.50;3.75;;;;;;;;6354774;22;8734;-83
2021/06/21 03:30:55;;;;;;;;;5.75;5.25;;;;;;;;6304264;22;8734;-83
2021/06/21 03:33:23;;;;;;;;;7.50;7.50;;;;;;;;6354834;22;8690;-83
2021/06/21 03:35:51;;;;;;;;;7.50;6.75;;;;;;;;6326362;22;8742;-83
2021/06/21 03:38:29;;;;;;;;;;;;;;;;;;;;;
2021/06/21 03:41:10;;;;;;;;;8.50;8.50;;;;;;;;6353927;22;36809;-83
2021/06/21 03:43:48;;;;;;;;;;;;;;;;;;;;;
2021/06/21 03:46:25;;;;;;;;;9.00;8.50;;;;;;;;6352918;22;35856;-84
2021/06/21 03:48:55;;;;;;;;;6.25;6.00;;;;;;;;6355151;22;8749;-83
2021/06/21 03:51:21;;;;;;;;;10.50;6.75;;;;;;;;6326072;22;8780;-83
2021/06/21 03:53:49;;;;;;;;;8.50;8.50;;;;;;;;6355108;22;8742;-83
2021/06/21 03:56:15;;;;;;;;;10.75;7.00;;;;;;;;6327166;22;8727;-83
2021/06/21 03:58:40;;;;;;;;;7.50;6.75;;;;;;;;6355426;22;8762;-83
2021/06/21 04:01:05;;;;;;;;;11.25;8.25;;;;;;;;6355154;22;8750;-84
2021/06/21 04:03:33;;;;;;;;;10.25;8.25;;;;;;;;6355109;22;8827;-83
2021/06/21 04:05:59;;;;;;;;;6.00;6.00;;;;;;;;6354557;22;8733;-83
2021/06/21 04:08:24;;;;;;;;;11.25;9.00;;;;;;;;6326914;22;9494;-83
2021/06/21 04:10:52;;;;;;;;;9.50;8.75;;;;;;;;6354717;22;8726;-83
2021/06/21 04:13:35;;;;;;;;;7.75;6.75;;;;;;;;6354822;22;8788;-83
2021/06/21 04:16:12;;;;;;;;;;;;;;;;;;;;;
2021/06/21 04:21:48;;;;;;;;;9.25;8.75;;;;;;;;6336708;22;8734;-83
2021/06/21 04:24:42;;;;;;;;;9.00;9.00;;;;;;;;6354579;22;8789;-83
2021/06/21 04:27:08;;;;;;;;;12.25;9.75;;;;;;;;6354290;22;8678;-83
2021/06/21 04:35:57;;;;;;;;;7.75;7.25;;;;;;;;6331534;22;8727;-83
2021/06/21 04:38:36;;;;;;;;;;;;;;;;;;;;;
2021/06/21 04:41:24;;;;;;;;;9.25;9.25;;;;;;;;6353288;22;37205;-84
2021/06/21 04:43:52;;;;;;;;;10.50;10.50;;;;;;;;6315684;22;8887;-84
2021/06/21 04:46:33;;;;;;;;;8.75;8.75;;;;;;;;6354621;22;8754;-83
2021/06/21 04:51:57;;;;;;;;;9.50;9.50;;;;;;;;6304534;22;8750;-84
2021/06/21 04:54:41;;;;;;;;;8.50;7.75;;;;;;;;6354711;22;8718;-83
2021/06/21 04:57:48;;;;;;;;;12.50;9.75;;;;;;;;6325617;22;8750;-84
2021/06/21 05:00:16;;;;;;;;;10.75;10.50;;;;;;;;6350368;22;8746;-84
2021/06/21 05:02:42;;;;;;;;;10.25;9.75;;;;;;;;6354114;22;9786;-84
2021/06/21 05:05:08;;;;;;;;;12.00;11.25;;;;;;;;6326190;22;8742;-83
2021/06/21 05:07:40;;;;;;;;;11.50;10.00;;;;;;;;6326877;22;8730;-84
2021/06/21 05:10:12;;;;;;;;;8.25;8.00;;;;;;;;6353868;22;8734;-83
2021/06/21 05:12:47;;;;;;;;;12.00;9.25;;;;;;;;6326363;22;8778;-84
2021/06/21 05:15:13;;;;;;;;;13.75;11.25;;;;;;;;6354543;22;8711;-83
2021/06/21 05:17:39;;;;;;;;;8.50;7.50;;;;;;;;6354710;22;8742;-83
2021/06/21 05:20:06;;;;;;;;;10.75;9.75;;;;;;;;6326243;22;8797;-82
2021/06/21 05:22:31;;;;;;;;;10.00;7.50;;;;;;;;6326386;22;8702;-82
2021/06/21 05:24:59;;;;;;;;;11.00;9.25;;;;;;;;6354696;22;8830;-82
2021/06/21 05:27:24;;;;;;;;;7.25;7.25;;;;;;;;6354921;22;8735;-82
2021/06/21 05:29:50;;;;;;;;;12.00;8.50;;;;;;;;6354546;22;8738;-81
2021/06/21 05:32:15;;;;;;;;;9.25;8.75;;;;;;;;6354379;22;8762;-81
2021/06/21 05:34:41;;;;;;;;;8.50;8.50;;;;;;;;6353700;22;8738;-82
2021/06/21 05:37:06;;;;;;;;;10.75;10.75;;;;;;;;6354643;22;8750;-81
2021/06/21 05:39:32;;;;;;;;;11.50;9.50;;;;;;;;6354688;22;8784;-82
2021/06/21 05:41:59;;;;;;;;;13.25;12.00;;;;;;;;6354536;22;9536;-82
2021/06/21 05:44:29;;;;;;;;;15.00;11.75;;;;;;;;6354214;22;8750;-82
2021/06/21 05:46:54;;;;;;;;;10.25;8.75;;;;;;;;6354152;22;8758;-82
2021/06/21 05:49:28;;;;;;;;;8.00;7.25;;;;;;;;6325398;22;8761;-82
2021/06/21 05:51:54;;;;;;;;;11.50;10.75;;;;;;;;6325786;22;8792;-82
2021/06/21 05:54:24;;;;;;;;;12.50;12.50;;;;;;;;6354731;22;8734;-83
2021/06/21 05:56:50;;;;;;;;;12.75;9.25;;;;;;;;6354699;22;8745;-82
2021/06/21 05:59:15;;;;;;;;;13.25;11.00;;;;;;;;6353141;22;8754;-81
2021/06/21 06:01:40;;;;;;;;;8.33;8.33;;;;;;;;6353899;22;9507;-81
2021/06/21 06:04:06;;;;;;;;;13.00;13.00;;;;;;;;6354592;22;8738;-81
2021/06/21 06:06:31;;;;;;;;;13.00;11.00;;;;;;;;6354035;22;8778;-81
2021/06/21 06:08:56;;;;;;;;;11.00;10.25;;;;;;;;6355081;22;8773;-81
2021/06/21 06:11:22;;;;;;;;;11.25;9.00;;;;;;;;6355371;22;8794;-81
2021/06/21 06:13:47;;;;;;;;;10.25;8.00;;;;;;;;6355888;22;8782;-80
2021/06/21 06:16:13;;;;;;;;;11.75;10.00;;;;;;;;6355685;22;8738;-82
2021/06/21 06:18:39;;;;;;;;;13.00;11.00;;;;;;;;6327135;22;8765;-82
2021/06/21 06:21:04;;;;;;;;;12.00;11.75;;;;;;;;6355395;22;8753;-82
2021/06/21 06:23:29;;;;;;;;;11.00;10.75;;;;;;;;6355311;22;8897;-82
2021/06/21 06:25:55;;;;;;;;;13.75;10.25;;;;;;;;6355590;22;8769;-81
2021/06/21 06:28:20;;;;;;;;;11.00;10.00;;;;;;;;6355627;22;8750;-82
2021/06/21 06:30:45;;;;;;;;;12.25;10.50;;;;;;;;6327359;22;9349;-81
2021/06/21 06:33:11;;;;;;;;;12.75;8.00;;;;;;;;6355374;22;8750;-81
2021/06/21 06:35:36;;;;;;;;;9.50;8.25;;;;;;;;6355149;22;9514;-81
2021/06/21 06:38:02;;;;;;;;;7.25;6.75;;;;;;;;6355459;22;8730;-82
2021/06/21 06:40:29;;;;;;;;;7.25;7.25;;;;;;;;6327185;22;8839;-82
2021/06/21 06:42:55;;;;;;;;;10.50;8.50;;;;;;;;6327194;22;8839;-82
2021/06/21 06:45:25;;;;;;;;;8.25;7.75;;;;;;;;6354919;22;8762;-82
2021/06/21 06:47:51;;;;;;;;;10.00;9.25;;;;;;;;6355302;22;8734;-82
2021/06/21 06:50:17;;;;;;;;;9.25;9.25;;;;;;;;6355103;22;8808;-81
2021/06/21 06:52:43;;;;;;;;;9.50;7.75;;;;;;;;6327108;22;8766;-83
2021/06/21 06:57:53;;;;;;;;;11.75;9.00;;;;;;;;6355004;22;8710;-82
2021/06/21 07:00:19;;;;;;;;;9.00;7.75;;;;;;;;6355591;22;8864;-82
2021/06/21 07:02:45;;;;;;;;;8.25;8.25;;;;;;;;6355297;22;8823;-83
2021/06/21 07:05:11;;;;;;;;;9.75;8.00;;;;;;;;6354641;22;8710;-84
2021/06/21 07:07:36;;;;;;;;;8.50;7.50;;;;;;;;6354805;22;9756;-82
2021/06/21 07:10:02;;;;;;;;;8.00;8.00;;;;;;;;6355044;22;8770;-83
2021/06/21 07:12:27;;;;;;;;;8.75;8.75;;;;;;;;6355505;22;8876;-85
2021/06/21 07:14:53;;;;;;;;;5.00;4.00;;;;;;;;6355585;22;8734;-86
2021/06/21 07:17:18;;;;;;;;;6.75;6.75;;;;;;;;6355376;22;8723;-85
2021/06/21 07:19:44;;;;;;;;;10.00;8.00;;;;;;;;6355018;22;9467;-85
2021/06/21 07:22:09;;;;;;;;;7.50;6.75;;;;;;;;6354487;22;8758;-88
2021/06/21 07:24:35;;;;;;;;;6.50;6.50;;;;;;;;6355287;22;8750;-89
2021/06/21 07:27:01;;;;;;;;;8.75;8.00;;;;;;;;6355865;22;8750;-86
2021/06/21 07:29:26;;;;;;;;;8.00;7.00;;;;;;;;6355122;22;8768;-85
2021/06/21 07:31:51;;;;;;;;;8.00;5.25;;;;;;;;6354830;22;9548;-86
2021/06/21 07:34:17;;;;;;;;;6.50;6.00;;;;;;;;6355186;22;8757;-85
2021/06/21 07:36:42;;;;;;;;;4.50;4.50;;;;;;;;6355221;22;8816;-87
2021/06/21 07:39:08;;;;;;;;;7.25;7.00;;;;;;;;6326948;22;8765;-86
2021/06/21 07:47:48;;;;;;;;;7.75;7.75;;;;;;;;6180803;23;8786;-83
2021/06/21 07:50:31;;;;;;;;;9.00;6.25;;;;;;;;6197779;23;8848;-83
2021/06/21 07:53:06;;;;;;;;;6.00;5.00;;;;;;;;6172388;23;8741;-84
2021/06/21 07:55:34;;;;;;;;;8.00;6.75;;;;;;;;6198113;23;8725;-84
2021/06/21 07:58:02;;;;;;;;;9.75;9.75;;;;;;;;6197856;23;8827;-84
2021/06/21 08:00:28;;;;;;;;;6.75;5.75;;;;;;;;6231253;22;8746;-83
2021/06/21 08:02:54;;;;;;;;;6.75;6.00;;;;;;;;6354666;22;8738;-85
2021/06/21 08:05:21;;;;;;;;;5.00;5.00;;;;;;;;6326725;22;8730;-83
2021/06/21 08:07:46;;;;;;;;;5.75;4.75;;;;;;;;6355269;22;8741;-83
2021/06/21 08:10:17;;;;;;;;;5.75;5.00;;;;;;;;6355148;22;8734;-83
2021/06/21 08:12:43;;;;;;;;;5.25;5.00;;;;;;;;6354297;22;8722;-82
2021/06/21 08:15:11;;;;;;;;;6.00;6.00;;;;;;;;6326887;22;8731;-83
2021/06/21 08:17:40;;;;;;;;;7.25;7.25;;;;;;;;6354613;22;9581;-83
2021/06/21 08:20:10;;;;;;;;;6.25;6.25;;;;;;;;6354154;22;8744;-83
2021/06/21 08:22:41;;;;;;;;;6.75;5.00;;;;;;;;6354160;22;8848;-83
2021/06/21 08:25:09;;;;;;;;;4.50;4.25;;;;;;;;6354656;22;8671;-84
2021/06/21 08:27:53;;;;;;;;;;;;;;;;;;;;;
2021/06/21 08:30:22;;;;;;;;;5.25;4.75;;;;;;;;6353689;22;35922;-83
2021/06/21 08:33:08;;;;;;;;;4.50;4.50;;;;;;;;6354364;22;8837;-83
2021/06/21 08:35:46;;;;;;;;;;;;;;;;;;;;;
2021/06/21 08:38:19;;;;;;;;;3.00;3.00;;;;;;;;6353492;22;35688;-84
2021/06/21 08:40:54;;;;;;;;;5.50;5.00;;;;;;;;6355313;22;8726;-83
2021/06/21 08:43:38;;;;;;;;;5.50;5.00;;;;;;;;6325963;22;8754;-83
2021/06/21 08:46:12;;;;;;;;;6.00;4.00;;;;;;;;6354267;22;8776;-82
2021/06/21 08:48:58;;;;;;;;;4.00;4.00;;;;;;;;6354167;22;8727;-83
2021/06/21 08:51:28;;;;;;;;;4.00;3.00;;;;;;;;6352556;22;8753;-83
2021/06/21 08:53:59;;;;;;;;;3.25;3.25;;;;;;;;6354517;22;8742;-83
2021/06/21 08:56:33;;;;;;;;;2.00;2.00;;;;;;;;6354389;22;8719;-83
2021/06/21 08:59:05;;;;;;;;;3.50;2.25;;;;;;;;6355278;22;8734;-83
2021/06/21 09:01:31;;;;;;;;;3.25;3.00;;;;;;;;6354780;22;8742;-82
2021/06/21 09:04:00;;;;;;;;;5.00;3.75;;;;;;;;6354336;22;8734;-83
2021/06/21 09:06:25;;;;;;;;;2.00;2.00;;;;;;;;6354206;22;8671;-83
2021/06/21 09:08:54;;;;;;;;;3.75;3.00;;;;;;;;6354310;22;8726;-83
2021/06/21 09:11:20;;;;;;;;;5.00;3.00;;;;;;;;6353740;22;8666;-82
2021/06/21 09:13:47;;;;;;;;;3.00;2.00;;;;;;;;6354194;22;8853;-82
2021/06/21 09:16:12;;;;;;;;;2.00;2.00;;;;;;;;6354623;22;8714;-82
2021/06/21 09:18:39;;;;;;;;;3.00;3.00;;;;;;;;6354447;22;8874;-82
2021/06/21 09:21:18;;;;;;;;;2.00;1.25;;;;;;;;6353634;22;8711;-83
2021/06/21 09:23:43;;;;;;;;;2.00;2.00;;;;;;;;6325991;22;8777;-82
2021/06/21 09:26:19;;;;;;;;;2.25;2.25;;;;;;;;6354862;22;8758;-83
2021/06/21 09:28:45;;;;;;;;;3.00;2.00;;;;;;;;6354615;22;8719;-83
2021/06/21 09:31:10;;;;;;;;;4.75;2.50;;;;;;;;6354926;22;8726;-82
2021/06/21 09:33:36;;;;;;;;;4.00;3.00;;;;;;;;6354923;22;8827;-83
2021/06/21 09:36:02;;;;;;;;;5.50;3.00;;;;;;;;6354559;22;8710;-83
2021/06/21 09:38:27;;;;;;;;;2.00;2.00;;;;;;;;6354937;22;8706;-83
2021/06/21 09:40:54;;;;;;;;;2.50;1.25;;;;;;;;6354970;22;8769;-83
2021/06/21 09:43:21;;;;;;;;;2.00;2.00;;;;;;;;6353580;22;8831;-83
2021/06/21 09:46:07;;;;;;;;;3.00;3.00;;;;;;;;6353960;22;8726;-83
2021/06/21 09:48:32;;;;;;;;;1.50;1.50;;;;;;;;6353426;22;8829;-84
2021/06/21 09:50:57;;;;;;;;;2.00;2.00;;;;;;;;6354418;22;8770;-84
2021/06/21 09:53:23;;;;;;;;;2.00;2.00;;;;;;;;6354723;22;9599;-84
2021/06/21 09:55:49;;;;;;;;;1.25;1.25;;;;;;;;6326405;22;8738;-84
2021/06/21 09:58:19;;;;;;;;;1.25;1.25;;;;;;;;6354646;22;8841;-84
2021/06/21 10:00:46;;;;;;;;;2.00;2.00;;;;;;;;6354645;22;8722;-85
2021/06/21 10:03:11;;;;;;;;;2.25;0.75;;;;;;;;6353633;22;8734;-81
2021/06/21 10:05:50;;;;;;;;;;;;;;;;;;;;;
2021/06/21 10:08:19;;;;;;;;;2.00;2.00;;;;;;;;6353123;22;35850;-84
2021/06/21 10:10:44;;;;;;;;;3.00;2.50;;;;;;;;6354083;22;8714;-86
2021/06/21 10:16:58;;;;;;;;;;;;;;;;;;;;;
2021/06/21 10:22:21;;;;;;;;;1.25;1.25;;;;;;;;6331996;22;8754;-84
2021/06/21 10:27:48;;;;;;;;;3.00;3.00;;;;;;;;6353545;22;8735;-85
2021/06/21 10:30:44;;;;;;;;;;;;;;;;;;;;;
2021/06/21 10:33:12;;;;;;;;;2.25;2.00;;;;;;;;6352242;22;36304;-84
2021/06/21 10:35:39;;;;;;;;;2.00;2.00;;;;;;;;6353764;22;8719;-85
2021/06/21 10:38:05;;;;;;;;;2.25;2.00;;;;;;;;6353773;22;8670;-84
2021/06/21 10:40:31;;;;;;;;;2.75;2.00;;;;;;;;6353642;22;8852;-85
2021/06/21 10:42:57;;;;;;;;;2.00;2.00;;;;;;;;6354332;22;8754;-84
2021/06/21 10:45:24;;;;;;;;;3.00;2.00;;;;;;;;6353104;22;8776;-83
2021/06/21 10:48:10;;;;;;;;;2.00;2.00;;;;;;;;6353639;22;8737;-83
2021/06/21 10:50:49;;;;;;;;;1.00;1.00;;;;;;;;6352150;22;8710;-83
2021/06/21 10:53:16;;;;;;;;;2.25;2.25;;;;;;;;6354143;22;8742;-83
2021/06/21 10:55:46;;;;;;;;;1.00;1.00;;;;;;;;6355074;22;8805;-83
2021/06/21 10:58:20;;;;;;;;;1.00;1.00;;;;;;;;6354841;22;8687;-82
2021/06/21 11:04:00;;;;;;;;;1.25;1.25;;;;;;;;6327557;22;8847;-84
2021/06/21 11:06:26;;;;;;;;;0.25;0.25;;;;;;;;6355515;22;8734;-84
2021/06/21 11:08:55;;;;;;;;;1.50;1.50;;;;;;;;6355548;22;8735;-85
2021/06/21 11:11:33;;;;;;;;;1.00;1.00;;;;;;;;6326901;22;8711;-83
2021/06/21 11:14:05;;;;;;;;;1.00;1.00;;;;;;;;6355021;22;13009;-83
2021/06/21 11:16:31;;;;;;;;;2.00;1.00;;;;;;;;6355763;22;8730;-83
2021/06/21 11:18:56;;;;;;;;;1.75;1.00;;;;;;;;6355557;22;8722;-83
2021/06/21 12:28:15;;;;;;;;;;;;;;;;;;;;;
2021/06/21 12:30:51;;;;;;;;;1.00;0.25;;;;;;;;6136515;23;57202;-85
2021/06/21 12:36:11;;;;;;;;;2.00;1.00;;;;;;;;6148565;23;46517;-84
2021/06/21 12:38:39;;;;;;;;;1.00;1.00;;;;;;;;6203074;22;47882;-84
2021/06/21 12:41:17;;;;;;;;;3.00;2.00;;;;;;;;6291653;22;46853;-84
2021/06/21 12:43:58;;;;;;;;;1.00;1.00;;;;;;;;6293168;22;47114;-83
2021/06/21 12:46:25;;;;;;;;;1.00;1.00;;;;;;;;6277680;22;46842;-84
2021/06/21 12:48:50;;;;;;;;;1.50;0.75;;;;;;;;6277421;22;47845;-84
2021/06/21 12:51:42;;;;;;;;;1.00;1.00;;;;;;;;6276564;22;46906;-85
2021/06/21 17:46:09;;;;;;;;;5.00;3.75;;;;;;;;6403070;22;46898;-85
2021/06/21 17:48:35;;;;;;;;;5.75;5.25;;;;;;;;6402887;22;46700;-84
2021/06/21 17:51:02;;;;;;;;;1.50;1.00;;;;;;;;6402807;22;46843;-85
2021/06/21 17:53:28;;;;;;;;;2.00;2.00;;;;;;;;6403485;22;46732;-84
2021/06/21 18:02:43;;;;;;;;;2.75;2.00;;;;;;;;6091215;23;47103;-86
2021/06/21 18:05:21;;;;;;;;;1.00;1.00;;;;;;;;6212888;22;47366;-85
2021/06/21 19:48:00;;;;;;;;;2.75;2.75;;;;;;;;5842595;24;47108;-86
